Careywood, Idaho
Current Conditions -  °F | °C
As of 3:55 PM on Saturday 20 Dec 2014 (Local Time) from KCOE Reporting Station
Overcast Overcast  
Wind Chill: 39°   Ceiling: 1100
Heat Index: 39°   Visibility: 5mi
Dew Point: 37°   Wind: 3mph
Humidity: 93%   Direction: 130°SE
Pressure: 29.69"   Gusts: NA
Location:  48.03°N, 116.65°W
Report Text: KCOE 202355Z AUTO 13003KT 5SM BKN011 OVC018 04/03 A2969 RMK AO1 60001 10040 20020 400400000 57027
Loading
Personal Weather Stations






























Interactive Weather Map New forecast layout! Learn more

10-Day Weather Forecast

Advertisements
Track Severe Weather on mobile